sensor_id;sensor_type;location;lat;lon;timestamp;pressure;altitude;pressure_sealevel;temperature;humidity
21960;BME280;11144;43.030;25.108;2023-02-02T00:00:57;99244.84;;;2.63;100.00
21960;BME280;11144;43.030;25.108;2023-02-02T00:02:30;99250.06;;;2.65;100.00
21960;BME280;11144;43.030;25.108;2023-02-02T00:04:03;99247.44;;;2.63;100.00
21960;BME280;11144;43.030;25.108;2023-02-02T00:05:36;99250.03;;;2.68;100.00
21960;BME280;11144;43.030;25.108;2023-02-02T00:07:08;99246.56;;;2.63;100.00
21960;BME280;11144;43.030;25.108;2023-02-02T00:08:42;99258.72;;;2.67;100.00
21960;BME280;11144;43.030;25.108;2023-02-02T00:10:15;99256.13;;;2.65;100.00
21960;BME280;11144;43.030;25.108;2023-02-02T00:11:50;99255.22;;;2.71;100.00
21960;BME280;11144;43.030;25.108;2023-02-02T00:13:23;99246.56;;;2.69;100.00
21960;BME280;11144;43.030;25.108;2023-02-02T00:14:55;99239.56;;;2.71;100.00
21960;BME280;11144;43.030;25.108;2023-02-02T00:16:37;99236.09;;;2.72;100.00
21960;BME280;11144;43.030;25.108;2023-02-02T00:18:10;99241.25;;;2.78;100.00
21960;BME280;11144;43.030;25.108;2023-02-02T00:19:44;99242.13;;;2.78;100.00
21960;BME280;11144;43.030;25.108;2023-02-02T00:21:17;99241.31;;;2.73;100.00
21960;BME280;11144;43.030;25.108;2023-02-02T00:22:51;99243.06;;;2.70;100.00
21960;BME280;11144;43.030;25.108;2023-02-02T00:24:24;99247.44;;;2.66;100.00
21960;BME280;11144;43.030;25.108;2023-02-02T00:25:57;99244.81;;;2.68;100.00
21960;BME280;11144;43.030;25.108;2023-02-02T00:27:31;99243.06;;;2.67;100.00
21960;BME280;11144;43.030;25.108;2023-02-02T00:29:05;99244.84;;;2.63;100.00
21960;BME280;11144;43.030;25.108;2023-02-02T00:30:39;99249.25;;;2.57;100.00
21960;BME280;11144;43.030;25.108;2023-02-02T00:32:11;99240.53;;;2.58;100.00
21960;BME280;11144;43.030;25.108;2023-02-02T00:33:45;99237.91;;;2.58;100.00
21960;BME280;11144;43.030;25.108;2023-02-02T00:35:18;99239.66;;;2.56;100.00
21960;BME280;11144;43.030;25.108;2023-02-02T00:36:51;99241.34;;;2.63;100.00
21960;BME280;11144;43.030;25.108;2023-02-02T00:38:25;99236.13;;;2.63;100.00
21960;BME280;11144;43.030;25.108;2023-02-02T00:39:58;99239.63;;;2.65;100.00
21960;BME280;11144;43.030;25.108;2023-02-02T00:41:31;99240.50;;;2.62;100.00
21960;BME280;11144;43.030;25.108;2023-02-02T00:43:06;99239.63;;;2.62;100.00
21960;BME280;11144;43.030;25.108;2023-02-02T00:44:39;99247.47;;;2.62;100.00
21960;BME280;11144;43.030;25.108;2023-02-02T00:46:30;99243.13;;;2.64;100.00
21960;BME280;11144;43.030;25.108;2023-02-02T00:48:02;99246.56;;;2.69;100.00
21960;BME280;11144;43.030;25.108;2023-02-02T00:49:36;99249.09;;;2.76;100.00
21960;BME280;11144;43.030;25.108;2023-02-02T00:51:09;99236.00;;;2.84;100.00
21960;BME280;11144;43.030;25.108;2023-02-02T00:52:43;99229.88;;;2.92;100.00
21960;BME280;11144;43.030;25.108;2023-02-02T00:54:15;99224.56;;;3.01;100.00
21960;BME280;11144;43.030;25.108;2023-02-02T00:55:48;99229.72;;;3.10;100.00
21960;BME280;11144;43.030;25.108;2023-02-02T00:57:22;99221.00;;;3.14;100.00
21960;BME280;11144;43.030;25.108;2023-02-02T00:58:56;99211.38;;;3.15;100.00
21960;BME280;11144;43.030;25.108;2023-02-02T01:00:30;99209.66;;;3.14;100.00
21960;BME280;11144;43.030;25.108;2023-02-02T01:02:03;99207.94;;;3.13;100.00
21960;BME280;11144;43.030;25.108;2023-02-02T01:03:37;99211.38;;;3.18;100.00
21960;BME280;11144;43.030;25.108;2023-02-02T01:05:11;99215.69;;;3.20;100.00
21960;BME280;11144;43.030;25.108;2023-02-02T01:06:44;99210.44;;;3.23;100.00
21960;BME280;11144;43.030;25.108;2023-02-02T01:08:17;99214.81;;;3.23;100.00
21960;BME280;11144;43.030;25.108;2023-02-02T01:09:51;99212.22;;;3.21;100.00
21960;BME280;11144;43.030;25.108;2023-02-02T01:11:24;99214.84;;;3.20;100.00
21960;BME280;11144;43.030;25.108;2023-02-02T01:12:57;99207.88;;;3.19;100.00
21960;BME280;11144;43.030;25.108;2023-02-02T01:14:32;99211.38;;;3.18;100.00
21960;BME280;11144;43.030;25.108;2023-02-02T01:16:05;99205.31;;;3.16;100.00
21960;BME280;11144;43.030;25.108;2023-02-02T01:17:39;99213.09;;;3.19;100.00
21960;BME280;11144;43.030;25.108;2023-02-02T01:19:13;99207.88;;;3.19;100.00
21960;BME280;11144;43.030;25.108;2023-02-02T01:20:46;99211.31;;;3.24;100.00
21960;BME280;11144;43.030;25.108;2023-02-02T01:22:19;99195.63;;;3.27;100.00
21960;BME280;11144;43.030;25.108;2023-02-02T01:23:53;99208.63;;;3.31;100.00
21960;BME280;11144;43.030;25.108;2023-02-02T01:25:26;99212.16;;;3.27;100.00
21960;BME280;11144;43.030;25.108;2023-02-02T01:27:01;99206.94;;;3.26;100.00
21960;BME280;11144;43.030;25.108;2023-02-02T01:28:35;99212.16;;;3.26;100.00
21960;BME280;11144;43.030;25.108;2023-02-02T01:30:10;99216.56;;;3.24;100.00
21960;BME280;11144;43.030;25.108;2023-02-02T01:31:44;99202.66;;;3.19;100.00
21960;BME280;11144;43.030;25.108;2023-02-02T01:33:18;99213.06;;;3.22;100.00
21960;BME280;11144;43.030;25.108;2023-02-02T01:34:50;99211.34;;;3.22;100.00
21960;BME280;11144;43.030;25.108;2023-02-02T01:36:24;99209.63;;;3.21;100.00
21960;BME280;11144;43.030;25.108;2023-02-02T01:37:57;99208.75;;;3.18;100.00
21960;BME280;11144;43.030;25.108;2023-02-02T01:39:31;99202.75;;;3.07;100.00
21960;BME280;11144;43.030;25.108;2023-02-02T01:41:05;99207.16;;;3.02;100.00
21960;BME280;11144;43.030;25.108;2023-02-02T01:42:38;99198.47;;;3.00;100.00
21960;BME280;11144;43.030;25.108;2023-02-02T01:46:26;99192.41;;;2.95;100.00
21960;BME280;11144;43.030;25.108;2023-02-02T01:48:00;99187.19;;;2.95;100.00
21960;BME280;11144;43.030;25.108;2023-02-02T01:49:34;99191.53;;;2.94;100.00
21960;BME280;11144;43.030;25.108;2023-02-02T01:51:09;99201.97;;;2.97;100.00
21960;BME280;11144;43.030;25.108;2023-02-02T01:52:46;99195.91;;;2.94;100.00
21960;BME280;11144;43.030;25.108;2023-02-02T01:54:29;99194.16;;;2.93;100.00
21960;BME280;11144;43.030;25.108;2023-02-02T01:56:06;99194.16;;;2.93;100.00
21960;BME280;11144;43.030;25.108;2023-02-02T01:57:41;99185.50;;;2.91;100.00
21960;BME280;11144;43.030;25.108;2023-02-02T01:59:16;99182.88;;;2.94;100.00
21960;BME280;11144;43.030;25.108;2023-02-02T02:00:50;99177.66;;;2.94;100.00
21960;BME280;11144;43.030;25.108;2023-02-02T02:02:27;99186.28;;;2.99;100.00
21960;BME280;11144;43.030;25.108;2023-02-02T02:04:01;99181.06;;;3.02;100.00
21960;BME280;11144;43.030;25.108;2023-02-02T02:05:37;99194.94;;;3.07;100.00
21960;BME280;11144;43.030;25.108;2023-02-02T02:07:11;99188.81;;;3.08;100.00
21960;BME280;11144;43.030;25.108;2023-02-02T02:08:48;99192.28;;;3.10;100.00
21960;BME280;11144;43.030;25.108;2023-02-02T02:10:23;99192.28;;;3.13;100.00
21960;BME280;11144;43.030;25.108;2023-02-02T02:11:57;99196.56;;;3.18;100.00
21960;BME280;11144;43.030;25.108;2023-02-02T02:13:31;99200.00;;;3.22;100.00
21960;BME280;11144;43.030;25.108;2023-02-02T02:15:25;99192.19;;;3.22;100.00
21960;BME280;11144;43.030;25.108;2023-02-02T02:17:31;99190.44;;;3.21;100.00
21960;BME280;11144;43.030;25.108;2023-02-02T02:19:19;99193.94;;;3.23;100.00
21960;BME280;11144;43.030;25.108;2023-02-02T02:21:24;99194.78;;;3.23;100.00
21960;BME280;11144;43.030;25.108;2023-02-02T02:25:53;99194.75;;;3.26;100.00
21960;BME280;11144;43.030;25.108;2023-02-02T02:28:37;99187.78;;;3.28;100.00
21960;BME280;11144;43.030;25.108;2023-02-02T02:32:26;99188.50;;;3.41;100.00
21960;BME280;11144;43.030;25.108;2023-02-02T02:34:07;99192.00;;;3.43;100.00
21960;BME280;11144;43.030;25.108;2023-02-02T02:35:46;99195.50;;;3.42;100.00
21960;BME280;11144;43.030;25.108;2023-02-02T02:37:30;99202.44;;;3.43;100.00
21960;BME280;11144;43.030;25.108;2023-02-02T02:39:10;99193.78;;;3.38;100.00
21960;BME280;11144;43.030;25.108;2023-02-02T02:40:46;99190.28;;;3.39;100.00
21960;BME280;11144;43.030;25.108;2023-02-02T02:42:24;99193.78;;;3.38;100.00
21960;BME280;11144;43.030;25.108;2023-02-02T02:44:03;99198.16;;;3.36;100.00
21960;BME280;11144;43.030;25.108;2023-02-02T02:45:37;99211.22;;;3.36;100.00
21960;BME280;11144;43.030;25.108;2023-02-02T02:47:12;99199.94;;;3.32;100.00
21960;BME280;11144;43.030;25.108;2023-02-02T02:48:47;99202.53;;;3.34;100.00
21960;BME280;11144;43.030;25.108;2023-02-02T02:50:23;99206.00;;;3.36;100.00
21960;BME280;11144;43.030;25.108;2023-02-02T02:51:55;99185.09;;;3.33;100.00
21960;BME280;11144;43.030;25.108;2023-02-02T02:53:36;99201.56;;;3.41;100.00
21960;BME280;11144;43.030;25.108;2023-02-02T02:55:10;99190.25;;;3.45;100.00
21960;BME280;11144;43.030;25.108;2023-02-02T02:56:58;99209.34;;;3.50;100.00
21960;BME280;11144;43.030;25.108;2023-02-02T02:58:44;99190.09;;;3.57;100.00
21960;BME280;11144;43.030;25.108;2023-02-02T03:00:31;99201.41;;;3.59;100.00
21960;BME280;11144;43.030;25.108;2023-02-02T03:02:18;99201.38;;;3.60;100.00
21960;BME280;11144;43.030;25.108;2023-02-02T03:04:06;99205.78;;;3.58;100.00
21960;BME280;11144;43.030;25.108;2023-02-02T03:05:48;99194.47;;;3.53;100.00
21960;BME280;11144;43.030;25.108;2023-02-02T03:07:28;99206.63;;;3.59;100.00
21960;BME280;11144;43.030;25.108;2023-02-02T03:09:07;99197.03;;;3.63;100.00
21960;BME280;11144;43.030;25.108;2023-02-02T03:10:43;99203.97;;;3.65;100.00
21960;BME280;11144;43.030;25.108;2023-02-02T03:12:17;99207.47;;;3.64;100.00
21960;BME280;11144;43.030;25.108;2023-02-02T03:13:51;99204.84;;;3.66;100.00
21960;BME280;11144;43.030;25.108;2023-02-02T03:15:24;99193.53;;;3.62;100.00
21960;BME280;11144;43.030;25.108;2023-02-02T03:16:57;99211.75;;;3.70;100.00
21960;BME280;11144;43.030;25.108;2023-02-02T03:18:31;99199.53;;;3.72;100.00
21960;BME280;11144;43.030;25.108;2023-02-02T03:20:07;99200.38;;;3.75;100.00
21960;BME280;11144;43.030;25.108;2023-02-02T03:21:41;99196.91;;;3.73;100.00
21960;BME280;11144;43.030;25.108;2023-02-02T03:23:14;99193.44;;;3.71;100.00
21960;BME280;11144;43.030;25.108;2023-02-02T03:24:47;99188.25;;;3.68;100.00
21960;BME280;11144;43.030;25.108;2023-02-02T03:26:21;99186.56;;;3.64;100.00
21960;BME280;11144;43.030;25.108;2023-02-02T03:27:54;99185.66;;;3.63;100.00
21960;BME280;11144;43.030;25.108;2023-02-02T03:29:27;99190.09;;;3.57;100.00
21960;BME280;11144;43.030;25.108;2023-02-02T03:31:01;99197.09;;;3.55;100.00
21960;BME280;11144;43.030;25.108;2023-02-02T03:32:34;99190.13;;;3.54;100.00
21960;BME280;11144;43.030;25.108;2023-02-02T03:34:08;99196.22;;;3.56;100.00
21960;BME280;11144;43.030;25.108;2023-02-02T03:35:43;99197.06;;;3.58;100.00
21960;BME280;11144;43.030;25.108;2023-02-02T03:37:15;99190.16;;;3.51;100.00
21960;BME280;11144;43.030;25.108;2023-02-02T03:38:48;99190.25;;;3.45;100.00
21960;BME280;11144;43.030;25.108;2023-02-02T03:40:22;99176.34;;;3.37;100.00
21960;BME280;11144;43.030;25.108;2023-02-02T03:41:55;99186.88;;;3.34;100.00
21960;BME280;11144;43.030;25.108;2023-02-02T03:43:28;99193.84;;;3.32;100.00
21960;BME280;11144;43.030;25.108;2023-02-02T03:45:00;99185.09;;;3.36;100.00
21960;BME280;11144;43.030;25.108;2023-02-02T03:46:34;99184.16;;;3.43;100.00
21960;BME280;11144;43.030;25.108;2023-02-02T03:48:07;99179.78;;;3.45;100.00
21960;BME280;11144;43.030;25.108;2023-02-02T03:49:40;99181.44;;;3.52;100.00
21960;BME280;11144;43.030;25.108;2023-02-02T03:51:14;99188.38;;;3.56;100.00
21960;BME280;11144;43.030;25.108;2023-02-02T03:52:47;99190.94;;;3.59;100.00
21960;BME280;11144;43.030;25.108;2023-02-02T03:54:20;99184.84;;;3.60;100.00
21960;BME280;11144;43.030;25.108;2023-02-02T03:55:53;99188.31;;;3.62;100.00
21960;BME280;11144;43.030;25.108;2023-02-02T03:57:26;99194.41;;;3.61;100.00
21960;BME280;11144;43.030;25.108;2023-02-02T03:58:59;99196.16;;;3.62;100.00
21960;BME280;11144;43.030;25.108;2023-02-02T04:00:32;99189.19;;;3.63;100.00
21960;BME280;11144;43.030;25.108;2023-02-02T04:02:06;99192.69;;;3.60;100.00
21960;BME280;11144;43.030;25.108;2023-02-02T04:03:39;99183.16;;;3.56;100.00
21960;BME280;11144;43.030;25.108;2023-02-02T04:05:12;99193.53;;;3.62;100.00
21960;BME280;11144;43.030;25.108;2023-02-02T04:06:47;99195.25;;;3.63;100.00
21960;BME280;11144;43.030;25.108;2023-02-02T04:08:19;99188.31;;;3.62;100.00
21960;BME280;11144;43.030;25.108;2023-02-02T04:09:52;99190.94;;;3.60;100.00
21960;BME280;11144;43.030;25.108;2023-02-02T04:11:25;99185.78;;;3.56;100.00
21960;BME280;11144;43.030;25.108;2023-02-02T04:12:57;99186.63;;;3.55;100.00
21960;BME280;11144;43.030;25.108;2023-02-02T04:14:30;99193.53;;;3.62;100.00
21960;BME280;11144;43.030;25.108;2023-02-02T04:16:04;99195.22;;;3.67;100.00
21960;BME280;11144;43.030;25.108;2023-02-02T04:17:38;99188.28;;;3.65;100.00
21960;BME280;11144;43.030;25.108;2023-02-02T04:19:11;99196.06;;;3.71;100.00
21960;BME280;11144;43.030;25.108;2023-02-02T04:20:45;99198.69;;;3.68;100.00
21960;BME280;11144;43.030;25.108;2023-02-02T04:22:19;99196.91;;;3.70;100.00
21960;BME280;11144;43.030;25.108;2023-02-02T04:23:52;99196.88;;;3.76;100.00
21960;BME280;11144;43.030;25.108;2023-02-02T04:25:26;99183.84;;;3.72;100.00
21960;BME280;11144;43.030;25.108;2023-02-02T04:26:59;99198.53;;;3.83;100.00
21960;BME280;11144;43.030;25.108;2023-02-02T04:28:32;99202.84;;;3.86;100.00
21960;BME280;11144;43.030;25.108;2023-02-02T04:30:06;99201.03;;;3.91;100.00
21960;BME280;11144;43.030;25.108;2023-02-02T04:31:40;99182.75;;;3.89;100.00
21960;BME280;11144;43.030;25.108;2023-02-02T04:33:13;99189.66;;;3.96;100.00
21960;BME280;11144;43.030;25.108;2023-02-02T04:34:46;99197.56;;;3.93;100.00
21960;BME280;11144;43.030;25.108;2023-02-02T04:36:19;99198.41;;;3.92;100.00
21960;BME280;11144;43.030;25.108;2023-02-02T04:37:55;99201.94;;;3.88;100.00
21960;BME280;11144;43.030;25.108;2023-02-02T04:39:28;99202.88;;;3.84;100.00
21960;BME280;11144;43.030;25.108;2023-02-02T04:41:05;99203.84;;;3.76;100.00
21960;BME280;11144;43.030;25.108;2023-02-02T04:42:38;99199.56;;;3.68;100.00
21960;BME280;11144;43.030;25.108;2023-02-02T04:44:12;99190.94;;;3.59;100.00
21960;BME280;11144;43.030;25.108;2023-02-02T04:45:46;99195.31;;;3.60;100.00
21960;BME280;11144;43.030;25.108;2023-02-02T04:47:21;99191.81;;;3.61;100.00
21960;BME280;11144;43.030;25.108;2023-02-02T04:48:54;99207.41;;;3.67;100.00
21960;BME280;11144;43.030;25.108;2023-02-02T04:50:27;99203.91;;;3.71;100.00
21960;BME280;11144;43.030;25.108;2023-02-02T04:52:00;99211.66;;;3.76;100.00
21960;BME280;11144;43.030;25.108;2023-02-02T04:53:35;99209.03;;;3.77;100.00
21960;BME280;11144;43.030;25.108;2023-02-02T04:55:08;99209.03;;;3.77;100.00
21960;BME280;11144;43.030;25.108;2023-02-02T04:56:42;99214.28;;;3.77;100.00
21960;BME280;11144;43.030;25.108;2023-02-02T04:58:14;99205.50;;;3.81;100.00
21960;BME280;11144;43.030;25.108;2023-02-02T04:59:47;99214.22;;;3.83;100.00
21960;BME280;11144;43.030;25.108;2023-02-02T05:01:21;99216.84;;;3.83;100.00
21960;BME280;11144;43.030;25.108;2023-02-02T05:02:54;99205.53;;;3.78;100.00
21960;BME280;11144;43.030;25.108;2023-02-02T05:04:28;99213.34;;;3.83;100.00
21960;BME280;11144;43.030;25.108;2023-02-02T05:06:01;99212.50;;;3.82;100.00
21960;BME280;11144;43.030;25.108;2023-02-02T05:07:35;99215.94;;;3.84;100.00
21960;BME280;11144;43.030;25.108;2023-02-02T05:09:10;99218.53;;;3.86;100.00
21960;BME280;11144;43.030;25.108;2023-02-02T05:10:43;99218.53;;;3.89;100.00
21960;BME280;11144;43.030;25.108;2023-02-02T05:12:16;99228.97;;;3.90;100.00
21960;BME280;11144;43.030;25.108;2023-02-02T05:13:51;99219.34;;;3.92;100.00
21960;BME280;11144;43.030;25.108;2023-02-02T05:15:23;99222.81;;;3.94;100.00
21960;BME280;11144;43.030;25.108;2023-02-02T05:16:57;99221.09;;;3.93;100.00
21960;BME280;11144;43.030;25.108;2023-02-02T05:18:30;99216.69;;;3.94;100.00
21960;BME280;11144;43.030;25.108;2023-02-02T05:20:03;99226.22;;;4.01;100.00
21960;BME280;11144;43.030;25.108;2023-02-02T05:21:37;99221.84;;;4.04;100.00
21960;BME280;11144;43.030;25.108;2023-02-02T05:23:10;99231.47;;;3.99;100.00
21960;BME280;11144;43.030;25.108;2023-02-02T05:24:44;99229.75;;;3.98;100.00
21960;BME280;11144;43.030;25.108;2023-02-02T05:26:20;99223.63;;;3.98;100.00
21960;BME280;11144;43.030;25.108;2023-02-02T05:27:54;99227.13;;;3.98;100.00
21960;BME280;11144;43.030;25.108;2023-02-02T05:29:27;99235.75;;;4.05;100.00
21960;BME280;11144;43.030;25.108;2023-02-02T05:31:04;99235.72;;;4.08;100.00
21960;BME280;11144;43.030;25.108;2023-02-02T05:32:38;99233.06;;;4.11;100.00
21960;BME280;11144;43.030;25.108;2023-02-02T05:34:12;99231.28;;;4.14;100.00
21960;BME280;11144;43.030;25.108;2023-02-02T05:35:45;99225.28;;;4.06;100.00
21960;BME280;11144;43.030;25.108;2023-02-02T05:37:18;99242.63;;;4.13;100.00
21960;BME280;11144;43.030;25.108;2023-02-02T05:38:51;99232.97;;;4.18;100.00
21960;BME280;11144;43.030;25.108;2023-02-02T05:40:26;99238.16;;;4.23;100.00
21960;BME280;11144;43.030;25.108;2023-02-02T05:41:59;99238.16;;;4.24;100.00
21960;BME280;11144;43.030;25.108;2023-02-02T05:43:32;99240.75;;;4.26;100.00
21960;BME280;11144;43.030;25.108;2023-02-02T05:45:06;99233.78;;;4.26;100.00
21960;BME280;11144;43.030;25.108;2023-02-02T05:46:40;99246.84;;;4.26;100.00
21960;BME280;11144;43.030;25.108;2023-02-02T05:48:15;99232.84;;;4.30;100.00
21960;BME280;11144;43.030;25.108;2023-02-02T05:49:49;99240.72;;;4.29;100.00
21960;BME280;11144;43.030;25.108;2023-02-02T05:51:24;99238.06;;;4.30;100.00
21960;BME280;11144;43.030;25.108;2023-02-02T05:52:58;99237.19;;;4.30;100.00
21960;BME280;11144;43.030;25.108;2023-02-02T05:54:32;99248.56;;;4.27;100.00
21960;BME280;11144;43.030;25.108;2023-02-02T05:56:06;99239.84;;;4.28;100.00
21960;BME280;11144;43.030;25.108;2023-02-02T05:57:40;99239.81;;;4.31;100.00
21960;BME280;11144;43.030;25.108;2023-02-02T05:59:13;99242.47;;;4.25;100.00
21960;BME280;11144;43.030;25.108;2023-02-02T06:00:46;99238.09;;;4.29;100.00
21960;BME280;11144;43.030;25.108;2023-02-02T06:02:19;99247.66;;;4.30;100.00
21960;BME280;11144;43.030;25.108;2023-02-02T06:03:53;99248.53;;;4.30;100.00
21960;BME280;11144;43.030;25.108;2023-02-02T06:05:26;99248.53;;;4.30;100.00
21960;BME280;11144;43.030;25.108;2023-02-02T06:06:59;99254.56;;;4.35;100.00
21960;BME280;11144;43.030;25.108;2023-02-02T06:08:32;99257.31;;;4.26;100.00
21960;BME280;11144;43.030;25.108;2023-02-02T06:10:06;99244.31;;;4.19;100.00
21960;BME280;11144;43.030;25.108;2023-02-02T06:11:42;99243.38;;;4.24;100.00
21960;BME280;11144;43.030;25.108;2023-02-02T06:13:15;99249.34;;;4.34;100.00
21960;BME280;11144;43.030;25.108;2023-02-02T06:14:48;99246.69;;;4.38;100.00
21960;BME280;11144;43.030;25.108;2023-02-02T06:16:22;99253.63;;;4.42;100.00
21960;BME280;11144;43.030;25.108;2023-02-02T06:17:55;99268.34;;;4.49;100.00
21960;BME280;11144;43.030;25.108;2023-02-02T06:19:29;99269.22;;;4.48;100.00
21960;BME280;11144;43.030;25.108;2023-02-02T06:21:04;99267.50;;;4.47;100.00
21960;BME280;11144;43.030;25.108;2023-02-02T06:22:37;99275.31;;;4.52;100.00
21960;BME280;11144;43.030;25.108;2023-02-02T06:24:11;99270.03;;;4.55;100.00
21960;BME280;11144;43.030;25.108;2023-02-02T06:25:44;99266.50;;;4.57;100.00
21960;BME280;11144;43.030;25.108;2023-02-02T06:27:18;99268.25;;;4.57;100.00
21960;BME280;11144;43.030;25.108;2023-02-02T06:28:52;99269.16;;;4.54;100.00
21960;BME280;11144;43.030;25.108;2023-02-02T06:30:26;99271.78;;;4.54;100.00
21960;BME280;11144;43.030;25.108;2023-02-02T06:32:00;99259.56;;;4.55;100.00
21960;BME280;11144;43.030;25.108;2023-02-02T06:33:34;99263.00;;;4.57;100.00
21960;BME280;11144;43.030;25.108;2023-02-02T06:35:08;99254.22;;;4.61;100.00
21960;BME280;11144;43.030;25.108;2023-02-02T06:36:41;99265.53;;;4.64;100.00
21960;BME280;11144;43.030;25.108;2023-02-02T06:38:14;99270.66;;;4.70;100.00
21960;BME280;11144;43.030;25.108;2023-02-02T06:39:48;99271.47;;;4.77;100.00
21960;BME280;11144;43.030;25.108;2023-02-02T06:41:21;99271.41;;;4.81;100.00
21960;BME280;11144;43.030;25.108;2023-02-02T06:42:57;99268.78;;;4.81;100.00
21960;BME280;11144;43.030;25.108;2023-02-02T06:44:30;99265.34;;;4.79;100.00
21960;BME280;11144;43.030;25.108;2023-02-02T06:46:04;99272.22;;;4.86;100.00
21960;BME280;11144;43.030;25.108;2023-02-02T06:47:37;99272.94;;;4.96;100.00
21960;BME280;11144;43.030;25.108;2023-02-02T06:49:10;99256.25;;;5.03;100.00
21960;BME280;11144;43.030;25.108;2023-02-02T06:50:43;99260.53;;;5.08;100.00
21960;BME280;11144;43.030;25.108;2023-02-02T06:52:17;99271.69;;;5.22;100.00
21960;BME280;11144;43.030;25.108;2023-02-02T06:53:50;99267.22;;;5.27;100.00
21960;BME280;11144;43.030;25.108;2023-02-02T06:55:23;99267.97;;;5.34;100.00
21960;BME280;11144;43.030;25.108;2023-02-02T06:56:57;99272.16;;;5.47;100.00
21960;BME280;11144;43.030;25.108;2023-02-02T06:58:33;99264.00;;;5.63;100.00
21960;BME280;11144;43.030;25.108;2023-02-02T07:00:07;99262.06;;;5.74;100.00
21960;BME280;11144;43.030;25.108;2023-02-02T07:01:41;99249.69;;;5.82;100.00
21960;BME280;11144;43.030;25.108;2023-02-02T07:03:14;99248.47;;;6.01;100.00
21960;BME280;11144;43.030;25.108;2023-02-02T07:04:47;99255.97;;;6.19;100.00
21960;BME280;11144;43.030;25.108;2023-02-02T07:06:23;99241.69;;;6.32;100.00
21960;BME280;11144;43.030;25.108;2023-02-02T07:07:57;99237.72;;;6.54;100.00
21960;BME280;11144;43.030;25.108;2023-02-02T07:09:31;99244.00;;;6.88;100.00
21960;BME280;11144;43.030;25.108;2023-02-02T07:11:04;99234.38;;;7.26;100.00
21960;BME280;11144;43.030;25.108;2023-02-02T07:12:46;99234.53;;;7.87;100.00
21960;BME280;11144;43.030;25.108;2023-02-02T07:14:21;99241.50;;;8.21;100.00
21960;BME280;11144;43.030;25.108;2023-02-02T07:15:54;99241.66;;;8.46;100.00
21960;BME280;11144;43.030;25.108;2023-02-02T07:17:29;99246.22;;;8.70;100.00
21960;BME280;11144;43.030;25.108;2023-02-02T07:19:02;99242.31;;;8.83;100.00
21960;BME280;11144;43.030;25.108;2023-02-02T07:20:36;99238.00;;;9.08;100.00
21960;BME280;11144;43.030;25.108;2023-02-02T07:22:09;99244.25;;;9.33;100.00
21960;BME280;11144;43.030;25.108;2023-02-02T07:23:42;99249.78;;;9.51;100.00
21960;BME280;11144;43.030;25.108;2023-02-02T07:25:16;99240.22;;;9.73;100.00
21960;BME280;11144;43.030;25.108;2023-02-02T07:26:49;99238.13;;;9.83;100.00
21960;BME280;11144;43.030;25.108;2023-02-02T07:28:22;99237.84;;;9.66;100.00
21960;BME280;11144;43.030;25.108;2023-02-02T07:29:57;99250.84;;;9.46;100.00
21960;BME280;11144;43.030;25.108;2023-02-02T07:31:30;99249.22;;;9.42;100.00
21960;BME280;11144;43.030;25.108;2023-02-02T07:33:07;99251.06;;;9.40;100.00
21960;BME280;11144;43.030;25.108;2023-02-02T07:34:40;99254.72;;;9.36;100.00
21960;BME280;11144;43.030;25.108;2023-02-02T07:36:20;99242.03;;;9.47;100.00
21960;BME280;11144;43.030;25.108;2023-02-02T07:37:54;99248.38;;;9.41;100.00
21960;BME280;11144;43.030;25.108;2023-02-02T07:39:28;99256.03;;;9.49;100.00
21960;BME280;11144;43.030;25.108;2023-02-02T07:41:01;99246.84;;;9.60;100.00
21960;BME280;11144;43.030;25.108;2023-02-02T07:42:34;99242.19;;;9.93;100.00
21960;BME280;11144;43.030;25.108;2023-02-02T07:44:11;99244.03;;;10.17;100.00
21960;BME280;11144;43.030;25.108;2023-02-02T07:45:47;99240.72;;;10.35;100.00
21960;BME280;11144;43.030;25.108;2023-02-02T07:47:20;99249.78;;;10.28;100.00
21960;BME280;11144;43.030;25.108;2023-02-02T07:48:54;99243.09;;;10.18;100.00
21960;BME280;11144;43.030;25.108;2023-02-02T07:50:29;99229.31;;;10.10;100.00
21960;BME280;11144;43.030;25.108;2023-02-02T07:52:02;99244.75;;;9.70;100.00
21960;BME280;11144;43.030;25.108;2023-02-02T07:53:35;99242.03;;;9.47;100.00
21960;BME280;11144;43.030;25.108;2023-02-02T07:55:09;99245.06;;;9.61;100.00
21960;BME280;11144;43.030;25.108;2023-02-02T07:56:56;99240.47;;;9.92;100.00
21960;BME280;11144;43.030;25.108;2023-02-02T07:58:31;99239.56;;;10.42;100.00
21960;BME280;11144;43.030;25.108;2023-02-02T08:00:06;99248.13;;;10.95;100.00
21960;BME280;11144;43.030;25.108;2023-02-02T08:01:44;99233.16;;;11.38;100.00
21960;BME280;11144;43.030;25.108;2023-02-02T08:03:17;99238.13;;;11.67;100.00
21960;BME280;11144;43.030;25.108;2023-02-02T08:04:51;99240.63;;;11.92;100.00
21960;BME280;11144;43.030;25.108;2023-02-02T08:06:26;99242.34;;;12.13;100.00
21960;BME280;11144;43.030;25.108;2023-02-02T08:08:00;99245.09;;;12.50;100.00
21960;BME280;11144;43.030;25.108;2023-02-02T08:09:34;99239.13;;;12.83;100.00
21960;BME280;11144;43.030;25.108;2023-02-02T08:11:08;99243.16;;;13.10;100.00
21960;BME280;11144;43.030;25.108;2023-02-02T08:12:41;99239.75;;;13.08;100.00
21960;BME280;11144;43.030;25.108;2023-02-02T08:14:15;99244.00;;;13.29;100.00
21960;BME280;11144;43.030;25.108;2023-02-02T08:15:48;99247.00;;;13.40;100.00
21960;BME280;11144;43.030;25.108;2023-02-02T08:17:23;99245.16;;;13.42;100.00
21960;BME280;11144;43.030;25.108;2023-02-02T08:18:57;99239.75;;;13.80;100.00
21960;BME280;11144;43.030;25.108;2023-02-02T08:20:30;99234.56;;;14.11;100.00
21960;BME280;11144;43.030;25.108;2023-02-02T08:22:04;99245.34;;;13.73;100.00
21960;BME280;11144;43.030;25.108;2023-02-02T08:23:38;99231.91;;;13.77;100.00